createdAt,value
2023-05-14T00:02:23.155Z,100.00
2023-05-14T00:04:56.250Z,100.00
2023-05-14T00:07:30.917Z,100.00
2023-05-14T00:10:00.891Z,100.00
2023-05-14T00:12:30.682Z,100.00
2023-05-14T00:15:00.800Z,100.00
2023-05-14T00:17:30.535Z,100.00
2023-05-14T00:20:03.101Z,100.00
2023-05-14T00:22:32.851Z,100.00
2023-05-14T00:25:02.611Z,100.00
2023-05-14T00:27:32.387Z,100.00
2023-05-14T00:30:02.246Z,100.00
2023-05-14T00:32:32.205Z,100.00
2023-05-14T00:35:04.992Z,100.00
2023-05-14T00:37:34.877Z,100.00
2023-05-14T00:40:04.542Z,100.00
2023-05-14T00:42:34.226Z,100.00
2023-05-14T00:45:03.881Z,100.00
2023-05-14T00:47:34.995Z,100.00
2023-05-14T00:50:08.224Z,100.00
2023-05-14T00:52:37.905Z,100.00
2023-05-14T00:55:10.884Z,100.00
2023-05-14T00:57:40.858Z,100.00
2023-05-14T01:00:11.986Z,100.00
2023-05-14T01:02:41.778Z,100.00
2023-05-14T01:05:14.591Z,100.00
2023-05-14T01:07:52.163Z,100.00
2023-05-14T01:10:27.775Z,100.00
2023-05-14T01:13:05.161Z,100.00
2023-05-14T01:15:37.577Z,100.00
2023-05-14T01:18:16.736Z,100.00
2023-05-14T01:20:49.442Z,100.00
2023-05-14T01:23:21.702Z,100.00
2023-05-14T01:25:51.716Z,100.00
2023-05-14T01:28:23.477Z,100.00
2023-05-14T01:30:59.963Z,100.00
2023-05-14T01:33:32.564Z,100.00
2023-05-14T01:36:02.896Z,100.00
2023-05-14T01:38:36.517Z,100.00
2023-05-14T01:41:07.957Z,100.00
2023-05-14T01:43:38.390Z,100.00
2023-05-14T01:46:08.348Z,100.00
2023-05-14T01:48:38.030Z,100.00
2023-05-14T01:51:07.822Z,100.00
2023-05-14T01:53:40.375Z,100.00
2023-05-14T01:56:10.586Z,100.00
2023-05-14T01:58:40.148Z,100.00
2023-05-14T02:01:09.863Z,100.00
2023-05-14T02:03:39.648Z,100.00
2023-05-14T02:06:09.709Z,100.00
2023-05-14T02:08:42.053Z,100.00
2023-05-14T02:11:12.145Z,100.00
2023-05-14T02:13:42.044Z,100.00
2023-05-14T02:16:12.514Z,100.00
2023-05-14T02:18:42.484Z,100.00
2023-05-14T02:21:12.156Z,100.00
2023-05-14T02:23:44.520Z,100.00
2023-05-14T02:26:14.618Z,100.00
2023-05-14T02:28:44.205Z,100.00
2023-05-14T02:31:17.912Z,100.00
2023-05-14T02:33:47.727Z,100.00
2023-05-14T02:36:17.666Z,100.00
2023-05-14T02:38:49.904Z,100.00
2023-05-14T02:41:20.170Z,100.00
2023-05-14T02:43:49.923Z,100.00
2023-05-14T02:46:22.583Z,100.00
2023-05-14T02:48:52.450Z,100.00
2023-05-14T02:51:23.082Z,100.00
2023-05-14T02:53:55.736Z,100.00
2023-05-14T02:56:26.623Z,100.00
2023-05-14T02:58:56.354Z,100.00
2023-05-14T03:01:26.544Z,100.00
2023-05-14T03:03:56.956Z,100.00
2023-05-14T03:06:26.750Z,100.00
2023-05-14T03:08:59.250Z,100.00
2023-05-14T03:11:29.224Z,100.00
2023-05-14T03:13:58.760Z,100.00
2023-05-14T03:16:28.410Z,100.00
2023-05-14T03:18:58.245Z,100.00
2023-05-14T03:21:28.286Z,100.00
2023-05-14T03:24:01.186Z,100.00
2023-05-14T03:26:30.822Z,100.00
2023-05-14T03:29:00.461Z,100.00
2023-05-14T03:31:30.229Z,100.00
2023-05-14T03:33:59.941Z,100.00
2023-05-14T03:36:29.804Z,100.00
2023-05-14T03:39:02.132Z,100.00
2023-05-14T03:41:31.969Z,100.00
2023-05-14T03:44:01.654Z,100.00
2023-05-14T03:46:31.297Z,100.00
2023-05-14T03:49:01.230Z,100.00
2023-05-14T03:51:31.993Z,100.00
2023-05-14T03:54:04.240Z,100.00
2023-05-14T03:56:34.142Z,100.00
2023-05-14T03:59:03.762Z,100.00
2023-05-14T04:01:35.026Z,100.00
2023-05-14T04:04:04.780Z,100.00
2023-05-14T04:06:35.834Z,100.00
2023-05-14T04:09:08.069Z,100.00
2023-05-14T04:11:38.046Z,100.00
2023-05-14T04:14:08.426Z,100.00
2023-05-14T04:16:38.292Z,100.00
2023-05-14T04:19:08.961Z,100.00
2023-05-14T04:21:39.096Z,100.00
2023-05-14T04:24:11.830Z,100.00
2023-05-14T04:26:41.605Z,100.00
2023-05-14T04:29:11.257Z,100.00
2023-05-14T04:31:41.153Z,100.00
2023-05-14T04:34:10.965Z,100.00
2023-05-14T04:36:40.559Z,100.00
2023-05-14T04:39:12.939Z,100.00
2023-05-14T04:41:42.863Z,100.00
2023-05-14T04:44:12.456Z,100.00
2023-05-14T04:46:42.421Z,100.00
2023-05-14T04:49:12.321Z,100.00
2023-05-14T04:51:42.004Z,100.00
2023-05-14T04:54:14.477Z,100.00
2023-05-14T04:56:44.435Z,100.00
2023-05-14T04:59:14.052Z,100.00
2023-05-14T05:01:43.919Z,100.00
2023-05-14T05:04:13.585Z,100.00
2023-05-14T05:06:43.280Z,100.00
2023-05-14T05:09:16.396Z,100.00
2023-05-14T05:11:46.198Z,100.00
2023-05-14T05:14:15.857Z,100.00
2023-05-14T05:16:45.593Z,100.00
2023-05-14T05:19:15.438Z,100.00
2023-05-14T05:21:45.642Z,100.00
2023-05-14T05:24:17.820Z,100.00
2023-05-14T05:26:47.764Z,100.00
2023-05-14T05:29:17.286Z,100.00
2023-05-14T05:31:46.994Z,100.00
2023-05-14T05:34:17.019Z,100.00
2023-05-14T05:36:46.753Z,100.00
2023-05-14T05:39:19.205Z,100.00
2023-05-14T05:41:48.992Z,100.00
2023-05-14T05:44:19.058Z,100.00
2023-05-14T05:46:48.703Z,100.00
2023-05-14T05:49:18.536Z,100.00
2023-05-14T05:51:48.095Z,100.00
2023-05-14T05:54:20.808Z,100.00
2023-05-14T05:56:50.618Z,100.00
2023-05-14T05:59:23.175Z,100.00
2023-05-14T06:01:53.050Z,100.00
2023-05-14T06:04:22.818Z,100.00
2023-05-14T06:06:52.451Z,100.00
2023-05-14T06:09:24.958Z,100.00
2023-05-14T06:11:54.672Z,100.00
2023-05-14T06:14:25.445Z,100.00
2023-05-14T06:16:55.313Z,100.00
2023-05-14T06:19:25.743Z,100.00
2023-05-14T06:21:56.104Z,100.00
2023-05-14T06:24:31.287Z,100.00
2023-05-14T06:27:00.950Z,100.00
2023-05-14T06:29:30.689Z,100.00
2023-05-14T06:32:04.831Z,100.00
2023-05-14T06:34:34.884Z,100.00
2023-05-14T06:37:04.506Z,100.00
2023-05-14T06:39:36.796Z,100.00
2023-05-14T06:42:10.570Z,100.00
2023-05-14T06:44:40.223Z,100.00
2023-05-14T06:47:10.706Z,100.00
2023-05-14T06:49:40.999Z,100.00
2023-05-14T06:52:10.759Z,100.00
2023-05-14T06:54:42.921Z,100.00
2023-05-14T06:57:12.757Z,100.00
2023-05-14T06:59:42.342Z,100.00
2023-05-14T07:02:12.075Z,100.00
2023-05-14T07:04:41.833Z,100.00
2023-05-14T07:07:18.101Z,100.00
2023-05-14T07:09:53.676Z,100.00
2023-05-14T07:12:23.411Z,100.00
2023-05-14T07:14:57.076Z,100.00
2023-05-14T07:17:27.380Z,100.00
2023-05-14T07:19:57.451Z,100.00
2023-05-14T07:22:27.101Z,100.00
2023-05-14T07:24:59.403Z,100.00
2023-05-14T07:27:29.350Z,100.00
2023-05-14T07:29:58.948Z,100.00
2023-05-14T07:32:28.685Z,100.00
2023-05-14T07:34:58.281Z,100.00
2023-05-14T07:37:30.952Z,100.00
2023-05-14T07:40:03.298Z,100.00
2023-05-14T07:42:36.409Z,100.00
2023-05-14T07:45:09.738Z,100.00
2023-05-14T07:47:39.575Z,100.00
2023-05-14T07:50:10.812Z,100.00
2023-05-14T07:52:40.681Z,100.00
2023-05-14T07:55:13.715Z,100.00
2023-05-14T07:57:43.430Z,100.00
2023-05-14T08:00:14.265Z,100.00
2023-05-14T08:02:44.348Z,100.00
2023-05-14T08:05:14.290Z,100.00
2023-05-14T08:07:44.217Z,100.00
2023-05-14T08:10:16.666Z,100.00
2023-05-14T08:12:46.400Z,100.00
2023-05-14T08:15:15.950Z,100.00
2023-05-14T08:17:45.780Z,100.00
2023-05-14T08:20:15.873Z,100.00
2023-05-14T08:22:45.457Z,94.51
2023-05-14T08:25:17.817Z,98.96
2023-05-14T08:27:47.576Z,98.15
2023-05-14T08:30:18.146Z,97.50
2023-05-14T08:32:47.896Z,97.42
2023-05-14T08:35:17.431Z,91.02
2023-05-14T08:37:47.141Z,82.93
2023-05-14T08:40:19.783Z,89.35
2023-05-14T08:42:50.621Z,96.04
2023-05-14T08:45:22.387Z,98.13
2023-05-14T08:47:53.453Z,100.00
2023-05-14T08:50:23.907Z,100.00
2023-05-14T08:52:54.456Z,98.38
2023-05-14T08:55:26.853Z,88.50
2023-05-14T08:57:56.861Z,78.49
2023-05-14T09:00:27.088Z,72.09
2023-05-14T09:02:58.071Z,63.42
2023-05-14T09:05:28.222Z,72.69
2023-05-14T09:07:58.442Z,72.36
2023-05-14T09:10:30.647Z,70.73
2023-05-14T09:13:00.540Z,63.43
2023-05-14T09:15:32.044Z,66.28
2023-05-14T09:18:02.085Z,60.71
2023-05-14T09:20:31.949Z,62.29
2023-05-14T09:23:02.008Z,56.23
2023-05-14T09:25:35.737Z,55.24
2023-05-14T09:28:09.543Z,52.76
2023-05-14T09:30:39.630Z,55.15
2023-05-14T09:33:10.591Z,54.05
2023-05-14T09:35:41.599Z,54.30
2023-05-14T09:38:11.374Z,58.04
2023-05-14T09:40:43.502Z,58.03
2023-05-14T09:43:14.129Z,57.49
2023-05-14T09:45:44.344Z,54.90
2023-05-14T09:48:13.991Z,50.96
2023-05-14T09:50:45.519Z,47.82
2023-05-14T09:53:17.891Z,45.43
2023-05-14T09:55:50.490Z,45.99
2023-05-14T09:58:20.152Z,41.75
2023-05-14T10:00:50.258Z,44.32
2023-05-14T10:03:23.045Z,45.87
2023-05-14T10:05:54.008Z,48.71
2023-05-14T10:08:27.911Z,47.15
2023-05-14T10:11:04.778Z,47.00
2023-05-14T10:13:38.568Z,45.02
2023-05-14T10:16:13.590Z,46.25
2023-05-14T10:18:46.917Z,43.43
2023-05-14T10:21:17.949Z,46.00
2023-05-14T10:23:48.480Z,38.04
2023-05-14T10:26:23.219Z,37.50
2023-05-14T10:28:54.249Z,35.59
2023-05-14T10:31:26.284Z,35.41
2023-05-14T10:36:25.677Z,35.77
2023-05-14T10:38:58.972Z,34.53
2023-05-14T10:41:31.397Z,32.21
2023-05-14T10:44:02.287Z,31.78
2023-05-14T10:46:32.173Z,31.65
2023-05-14T10:49:02.386Z,32.29
2023-05-14T10:51:33.641Z,33.35
2023-05-14T10:54:04.080Z,34.82
2023-05-14T10:56:36.459Z,33.10
2023-05-14T10:59:06.283Z,32.93
2023-05-14T11:01:36.282Z,32.95
2023-05-14T11:04:06.811Z,31.65
2023-05-14T11:06:36.954Z,30.56
2023-05-14T11:09:08.677Z,30.60
2023-05-14T11:11:40.992Z,30.20
2023-05-14T11:14:10.863Z,31.40
2023-05-14T11:16:41.602Z,31.44
2023-05-14T11:19:11.814Z,31.80
2023-05-14T11:21:41.853Z,31.36
2023-05-14T11:24:11.727Z,31.26
2023-05-14T11:26:44.046Z,32.55
2023-05-14T11:29:13.832Z,31.73
2023-05-14T11:31:43.783Z,32.49
2023-05-14T11:34:13.502Z,31.66
2023-05-14T11:36:43.473Z,32.73
2023-05-14T11:39:20.750Z,32.33
2023-05-14T11:41:53.078Z,33.55
2023-05-14T11:44:22.811Z,34.75
2023-05-14T11:46:58.994Z,34.48
2023-05-14T11:49:30.007Z,35.19
2023-05-14T11:52:03.714Z,34.07
2023-05-14T11:54:34.598Z,33.22
2023-05-14T11:57:13.344Z,31.38
2023-05-14T11:59:43.427Z,32.30
2023-05-14T12:02:14.833Z,33.86
2023-05-14T12:04:45.465Z,35.32
2023-05-14T12:07:19.077Z,36.64
2023-05-14T12:09:51.579Z,37.89
2023-05-14T12:12:25.293Z,38.08
2023-05-14T12:14:55.047Z,38.84
2023-05-14T12:17:25.976Z,39.27
2023-05-14T12:19:57.203Z,39.58
2023-05-14T12:22:27.357Z,39.83
2023-05-14T12:24:58.265Z,39.90
2023-05-14T12:27:32.329Z,40.79
2023-05-14T12:30:19.029Z,41.06
2023-05-14T12:32:53.109Z,41.02
2023-05-14T12:35:24.434Z,42.04
2023-05-14T12:37:54.367Z,41.99
2023-05-14T12:40:24.147Z,43.93
2023-05-14T12:42:57.014Z,41.24
2023-05-14T12:45:26.884Z,42.09
2023-05-14T12:47:56.556Z,43.03
2023-05-14T12:50:26.697Z,41.87
2023-05-14T12:52:56.460Z,42.87
2023-05-14T12:55:26.070Z,42.11
2023-05-14T12:57:58.354Z,41.67
2023-05-14T13:00:28.266Z,40.62
2023-05-14T13:02:57.961Z,41.36
2023-05-14T13:05:27.904Z,40.00
2023-05-14T13:07:57.683Z,39.46
2023-05-14T13:10:27.276Z,39.00
2023-05-14T13:12:59.608Z,39.92
2023-05-14T13:15:29.404Z,39.44
2023-05-14T13:17:59.052Z,39.64
2023-05-14T13:20:29.787Z,41.45
2023-05-14T13:22:59.535Z,39.98
2023-05-14T13:25:29.126Z,39.90
2023-05-14T13:28:01.521Z,40.40
2023-05-14T13:30:32.200Z,40.94
2023-05-14T13:33:02.707Z,38.43
2023-05-14T13:35:32.318Z,37.95
2023-05-14T13:38:01.922Z,39.24
2023-05-14T13:40:31.687Z,40.28
2023-05-14T13:43:03.844Z,39.55
2023-05-14T13:45:33.690Z,38.31
2023-05-14T13:48:03.314Z,38.54
2023-05-14T13:50:33.005Z,38.25
2023-05-14T13:53:02.748Z,38.46
2023-05-14T13:55:32.359Z,37.50
2023-05-14T13:58:05.085Z,34.96
2023-05-14T14:00:34.752Z,34.66
2023-05-14T14:03:04.312Z,32.99
2023-05-14T14:05:34.252Z,33.88
2023-05-14T14:08:13.119Z,33.21
2023-05-14T14:10:54.583Z,33.97
2023-05-14T14:13:28.049Z,33.60
2023-05-14T14:15:58.064Z,33.13
2023-05-14T14:18:27.838Z,32.78
2023-05-14T14:20:57.572Z,33.45
2023-05-14T14:24:25.890Z,100.00
2023-05-14T14:27:54.126Z,100.00
2023-05-14T14:31:25.066Z,100.00
2023-05-14T14:34:56.196Z,100.00
2023-05-14T14:38:24.506Z,100.00
2023-05-14T14:41:52.805Z,100.00
2023-05-14T14:45:21.191Z,100.00
2023-05-14T14:48:52.157Z,100.00
2023-05-14T14:52:20.585Z,100.00
2023-05-14T14:55:48.853Z,100.00
2023-05-14T14:59:17.326Z,100.00
2023-05-14T15:02:46.825Z,100.00
2023-05-14T15:06:17.908Z,100.00
2023-05-14T15:09:46.097Z,100.00
2023-05-14T15:13:15.014Z,100.00
2023-05-14T15:16:43.479Z,100.00
2023-05-14T15:20:12.634Z,100.00
2023-05-14T15:23:43.614Z,100.00
2023-05-14T15:27:11.813Z,100.00
2023-05-14T15:30:40.051Z,100.00
2023-05-14T15:34:09.023Z,100.00
2023-05-14T15:37:38.910Z,100.00
2023-05-14T15:41:10.489Z,100.00
2023-05-14T15:44:39.367Z,100.00
2023-05-14T15:48:08.360Z,100.00
2023-05-14T15:51:37.137Z,100.00
2023-05-14T15:55:05.579Z,100.00
2023-05-14T15:58:36.538Z,100.00
2023-05-14T16:02:05.201Z,100.00
2023-05-14T16:05:33.694Z,100.00
2023-05-14T16:09:03.216Z,100.00
2023-05-14T16:12:31.467Z,100.00
2023-05-14T16:16:02.512Z,100.00
2023-05-14T16:19:30.944Z,100.00
2023-05-14T16:22:59.258Z,100.00
2023-05-14T16:26:27.578Z,100.00
2023-05-14T16:29:56.058Z,100.00
2023-05-14T16:33:26.826Z,100.00
2023-05-14T16:36:55.175Z,100.00
2023-05-14T16:40:24.313Z,100.00
2023-05-14T16:43:52.799Z,100.00
2023-05-14T16:47:21.134Z,100.00
2023-05-14T16:50:52.511Z,100.00
2023-05-14T16:54:21.310Z,100.00
2023-05-14T16:57:49.542Z,100.00
2023-05-14T17:01:17.896Z,100.00
2023-05-14T17:04:46.423Z,100.00
2023-05-14T17:08:17.515Z,100.00
2023-05-14T17:11:45.836Z,100.00
2023-05-14T17:15:14.675Z,100.00
2023-05-14T17:18:42.921Z,100.00
2023-05-14T17:22:11.409Z,100.00
2023-05-14T17:25:42.767Z,100.00
2023-05-14T17:29:11.102Z,100.00
2023-05-14T17:32:39.620Z,100.00
2023-05-14T17:36:08.350Z,100.00
2023-05-14T17:39:37.038Z,100.00
2023-05-14T17:43:08.667Z,100.00
2023-05-14T17:46:37.077Z,100.00
2023-05-14T17:50:05.497Z,100.00
2023-05-14T17:53:33.766Z,100.00
2023-05-14T17:57:02.155Z,100.00
2023-05-14T18:00:33.057Z,100.00
2023-05-14T18:04:01.432Z,100.00
2023-05-14T18:07:30.028Z,100.00
2023-05-14T18:11:00.900Z,100.00
2023-05-14T18:14:30.368Z,100.00
2023-05-14T18:18:01.361Z,100.00
2023-05-14T18:21:29.749Z,100.00
2023-05-14T18:24:58.163Z,100.00
2023-05-14T18:28:26.756Z,100.00
2023-05-14T18:31:55.017Z,100.00
2023-05-14T18:35:26.097Z,100.00
2023-05-14T18:38:54.604Z,100.00
2023-05-14T18:42:23.028Z,100.00
2023-05-14T18:45:51.455Z,100.00
2023-05-14T18:49:20.114Z,100.00
2023-05-14T18:52:51.068Z,100.00
2023-05-14T18:56:19.408Z,100.00
2023-05-14T18:59:47.642Z,100.00
2023-05-14T19:03:16.008Z,100.00
2023-05-14T19:06:44.405Z,100.00
2023-05-14T19:10:17.047Z,100.00
2023-05-14T19:13:46.828Z,100.00
2023-05-14T19:17:15.828Z,100.00
2023-05-14T19:20:46.765Z,100.00
2023-05-14T19:24:17.807Z,100.00
2023-05-14T19:27:50.726Z,100.00
2023-05-14T19:31:19.208Z,100.00
2023-05-14T19:34:48.067Z,100.00
2023-05-14T19:38:17.643Z,100.00
2023-05-14T19:41:48.358Z,100.00
2023-05-14T19:45:16.748Z,100.00
2023-05-14T19:48:45.233Z,100.00
2023-05-14T19:52:14.189Z,100.00
2023-05-14T19:55:42.403Z,100.00
2023-05-14T19:59:13.392Z,100.00
2023-05-14T20:02:43.534Z,100.00
2023-05-14T20:06:12.499Z,100.00
2023-05-14T20:09:40.970Z,100.00
2023-05-14T20:13:10.490Z,100.00
2023-05-14T20:16:41.912Z,100.00
2023-05-14T20:20:12.044Z,100.00
2023-05-14T20:23:40.405Z,100.00
2023-05-14T20:27:09.193Z,100.00
2023-05-14T20:30:37.477Z,100.00
2023-05-14T20:34:08.508Z,100.00
2023-05-14T20:37:36.880Z,100.00
2023-05-14T20:41:05.375Z,100.00
2023-05-14T20:44:33.738Z,100.00
2023-05-14T20:48:02.298Z,100.00
2023-05-14T20:51:33.510Z,100.00
2023-05-14T20:55:02.552Z,100.00
2023-05-14T20:58:30.900Z,100.00
2023-05-14T21:01:59.375Z,100.00
2023-05-14T21:05:28.094Z,100.00
2023-05-14T21:08:59.052Z,100.00
2023-05-14T21:12:27.385Z,100.00
2023-05-14T21:15:56.006Z,100.00
2023-05-14T21:19:24.869Z,100.00
2023-05-14T21:22:53.103Z,100.00
2023-05-14T21:26:24.544Z,100.00
2023-05-14T21:29:52.926Z,100.00
2023-05-14T21:33:21.569Z,100.00
2023-05-14T21:36:50.661Z,100.00
2023-05-14T21:40:18.824Z,100.00
2023-05-14T21:43:49.774Z,100.00
2023-05-14T21:47:18.058Z,100.00
2023-05-14T21:50:46.463Z,100.00
2023-05-14T21:54:14.694Z,100.00
2023-05-14T21:57:43.498Z,100.00
2023-05-14T22:01:14.830Z,100.00
2023-05-14T22:04:43.376Z,100.00
2023-05-14T22:08:11.609Z,100.00
2023-05-14T22:11:39.937Z,100.00
2023-05-14T22:15:08.933Z,100.00
2023-05-14T22:18:39.815Z,100.00
2023-05-14T22:22:08.208Z,100.00
2023-05-14T22:25:36.586Z,100.00
2023-05-14T22:29:05.197Z,100.00
2023-05-14T22:32:33.472Z,100.00
2023-05-14T22:36:04.573Z,100.00
2023-05-14T22:39:33.052Z,100.00
2023-05-14T22:43:01.620Z,100.00
2023-05-14T22:46:30.077Z,100.00
2023-05-14T22:49:58.361Z,100.00
2023-05-14T22:53:29.907Z,100.00
2023-05-14T22:56:58.597Z,100.00
2023-05-14T23:00:27.252Z,100.00
2023-05-14T23:03:55.525Z,100.00
2023-05-14T23:07:24.291Z,100.00
2023-05-14T23:10:55.051Z,100.00
2023-05-14T23:14:23.354Z,100.00
2023-05-14T23:17:51.567Z,100.00
2023-05-14T23:21:19.952Z,100.00
2023-05-14T23:24:48.339Z,100.00
2023-05-14T23:28:19.350Z,100.00
2023-05-14T23:31:47.839Z,100.00
2023-05-14T23:35:16.318Z,100.00
2023-05-14T23:38:44.891Z,100.00
2023-05-14T23:42:13.188Z,100.00
2023-05-14T23:45:44.292Z,100.00
2023-05-14T23:49:12.581Z,100.00
2023-05-14T23:52:41.131Z,100.00
2023-05-14T23:56:10.439Z,100.00
2023-05-14T23:59:40.376Z,100.00
